createdAt,value
2018-07-24T00:00:49.809Z,15.37
2018-07-24T00:03:20.261Z,13.23
2018-07-24T00:05:50.373Z,13.77
2018-07-24T00:08:20.456Z,13.50
2018-07-24T00:10:50.733Z,16.43
2018-07-24T00:13:21.291Z,12.27
2018-07-24T00:15:51.111Z,13.23
2018-07-24T00:18:22.086Z,12.30
2018-07-24T00:20:52.159Z,13.67
2018-07-24T00:23:22.502Z,14.03
2018-07-24T00:25:52.450Z,14.10
2018-07-24T00:28:22.558Z,13.67
2018-07-24T00:30:52.961Z,13.50
2018-07-24T00:33:23.740Z,13.10
2018-07-24T00:35:54.149Z,13.57
2018-07-24T00:38:24.254Z,13.40
2018-07-24T00:40:54.642Z,17.63
2018-07-24T00:43:24.853Z,14.07
2018-07-24T00:45:55.013Z,13.80
2018-07-24T00:48:25.282Z,15.23
2018-07-24T00:50:55.478Z,12.63
2018-07-24T00:53:25.699Z,12.60
2018-07-24T00:55:55.759Z,13.60
2018-07-24T00:58:25.862Z,14.40
2018-07-24T01:00:56.922Z,14.17
2018-07-24T01:03:27.199Z,15.83
2018-07-24T01:05:57.158Z,12.10
2018-07-24T01:08:27.475Z,15.97
2018-07-24T01:10:57.956Z,14.23
2018-07-24T01:13:28.140Z,14.30
2018-07-24T01:15:58.423Z,15.83
2018-07-24T01:18:28.936Z,13.17
2018-07-24T01:20:59.161Z,14.60
2018-07-24T01:23:29.585Z,14.30
2018-07-24T01:26:00.546Z,17.27
2018-07-24T01:28:30.734Z,14.33
2018-07-24T01:31:00.785Z,13.13
2018-07-24T01:33:31.891Z,14.80
2018-07-24T01:36:01.909Z,14.13
2018-07-24T01:38:32.284Z,13.27
2018-07-24T01:41:02.634Z,14.07
2018-07-24T01:43:32.800Z,13.37
2018-07-24T01:46:02.923Z,17.20
2018-07-24T01:48:33.110Z,12.57
2018-07-24T01:51:03.264Z,14.13
2018-07-24T01:53:33.774Z,15.07
2018-07-24T01:56:03.996Z,17.43
2018-07-24T01:58:35.126Z,14.83
2018-07-24T02:01:05.175Z,14.07
2018-07-24T02:03:36.007Z,14.70
2018-07-24T02:06:06.408Z,13.00
2018-07-24T02:08:36.564Z,15.17
2018-07-24T02:11:06.897Z,12.57
2018-07-24T02:13:37.023Z,13.00
2018-07-24T02:16:07.161Z,12.90
2018-07-24T02:18:37.546Z,12.70
2018-07-24T02:21:07.638Z,14.30
2018-07-24T02:23:37.884Z,12.93
2018-07-24T02:26:08.439Z,14.57
2018-07-24T02:28:38.642Z,13.83
2018-07-24T02:31:09.086Z,13.83
2018-07-24T02:33:39.710Z,18.57
2018-07-24T02:36:10.072Z,14.23
2018-07-24T02:38:40.290Z,13.20
2018-07-24T02:41:10.589Z,12.23
2018-07-24T02:43:40.807Z,13.70
2018-07-24T02:46:16.307Z,12.10
2018-07-24T02:48:46.507Z,11.57
2018-07-24T02:51:16.609Z,12.30
2018-07-24T02:53:47.303Z,12.43
2018-07-24T02:56:17.676Z,13.00
2018-07-24T02:58:47.884Z,13.20
2018-07-24T03:01:19.417Z,11.97
2018-07-24T03:03:49.955Z,12.50
2018-07-24T03:06:20.438Z,11.57
2018-07-24T03:08:50.708Z,13.87
2018-07-24T03:11:21.291Z,13.07
2018-07-24T03:13:51.381Z,11.67
2018-07-24T03:16:22.201Z,12.33
2018-07-24T03:18:52.532Z,12.57
2018-07-24T03:21:22.765Z,12.43
2018-07-24T03:23:52.939Z,12.57
2018-07-24T03:26:23.920Z,15.73
2018-07-24T03:28:54.378Z,14.53
2018-07-24T03:31:24.588Z,13.93
2018-07-24T03:33:54.829Z,11.60
2018-07-24T03:36:24.963Z,12.33
2018-07-24T03:38:55.134Z,11.60
2018-07-24T03:41:25.287Z,12.13
2018-07-24T03:43:59.525Z,12.23
2018-07-24T03:46:30.101Z,10.90
2018-07-24T03:49:01.737Z,11.77
2018-07-24T03:51:31.962Z,11.00
2018-07-24T03:54:02.602Z,11.60
2018-07-24T03:56:32.835Z,11.33
2018-07-24T03:59:02.935Z,11.53
2018-07-24T04:01:33.075Z,14.23
2018-07-24T04:04:03.293Z,11.17
2018-07-24T04:06:33.550Z,11.90
2018-07-24T04:09:04.735Z,16.53
2018-07-24T04:11:35.411Z,11.27
2018-07-24T04:14:05.710Z,11.83
2018-07-24T04:16:36.147Z,11.50
2018-07-24T04:19:06.359Z,12.57
2018-07-24T04:21:42.962Z,14.07
2018-07-24T04:24:13.581Z,11.00
2018-07-24T04:26:43.760Z,12.03
2018-07-24T04:29:14.010Z,16.03
2018-07-24T04:31:44.247Z,12.33
2018-07-24T04:34:14.356Z,11.00
2018-07-24T04:36:44.708Z,12.50
2018-07-24T04:39:15.258Z,12.30
2018-07-24T04:41:45.651Z,10.13
2018-07-24T04:44:16.051Z,11.93
2018-07-24T04:46:47.145Z,11.63
2018-07-24T04:49:17.438Z,13.80
2018-07-24T04:51:48.779Z,13.60
2018-07-24T04:54:19.155Z,13.43
2018-07-24T04:56:49.498Z,11.90
2018-07-24T04:59:19.579Z,11.80
2018-07-24T05:01:49.549Z,12.63
2018-07-24T05:04:19.670Z,11.33
2018-07-24T05:06:49.954Z,11.77
2018-07-24T05:09:20.023Z,11.57
2018-07-24T05:11:50.267Z,12.67
2018-07-24T05:14:21.373Z,11.50
2018-07-24T05:16:52.344Z,11.13
2018-07-24T05:19:22.783Z,11.87
2018-07-24T05:21:53.149Z,11.40
2018-07-24T05:24:24.076Z,11.00
2018-07-24T05:26:54.255Z,12.87
2018-07-24T05:29:24.250Z,10.77
2018-07-24T05:31:54.386Z,14.80
2018-07-24T05:34:24.746Z,10.80
2018-07-24T05:36:55.677Z,17.93
2018-07-24T05:39:25.761Z,10.73
2018-07-24T05:41:56.416Z,11.60
2018-07-24T05:44:26.439Z,13.40
2018-07-24T05:46:56.599Z,10.87
2018-07-24T05:49:26.940Z,11.10
2018-07-24T05:51:57.676Z,12.47
2018-07-24T05:54:28.490Z,12.07
2018-07-24T05:56:58.874Z,11.90
2018-07-24T05:59:29.201Z,11.00
2018-07-24T06:01:59.472Z,12.70
2018-07-24T06:04:30.268Z,10.10
2018-07-24T06:07:00.580Z,15.30
2018-07-24T06:09:30.871Z,11.23
2018-07-24T06:12:01.123Z,11.20
2018-07-24T06:14:32.208Z,10.60
2018-07-24T06:17:02.738Z,13.17
2018-07-24T06:19:33.830Z,11.13
2018-07-24T06:22:04.176Z,13.40
2018-07-24T06:24:37.721Z,12.13
2018-07-24T06:27:07.888Z,11.40
2018-07-24T06:29:38.138Z,10.40
2018-07-24T06:32:08.743Z,10.20
2018-07-24T06:34:39.395Z,10.63
2018-07-24T06:37:10.343Z,11.00
2018-07-24T06:39:40.747Z,11.03
2018-07-24T06:42:11.871Z,14.73
2018-07-24T06:44:42.024Z,11.23
2018-07-24T06:47:12.936Z,10.80
2018-07-24T06:49:43.095Z,9.97
2018-07-24T06:52:13.578Z,11.53
2018-07-24T06:54:43.883Z,11.93
2018-07-24T06:57:14.412Z,10.73
2018-07-24T06:59:44.557Z,10.90
2018-07-24T07:02:15.442Z,10.70
2018-07-24T07:04:46.145Z,10.90
2018-07-24T07:07:16.543Z,14.90
2018-07-24T07:09:46.880Z,11.50
2018-07-24T07:12:17.410Z,11.40
2018-07-24T07:14:48.416Z,11.43
2018-07-24T07:17:18.651Z,16.90
2018-07-24T07:19:49.024Z,15.03
2018-07-24T07:22:19.314Z,12.17
2018-07-24T07:24:49.899Z,11.63
2018-07-24T07:27:21.011Z,11.10
2018-07-24T07:29:51.327Z,10.70
2018-07-24T07:32:21.736Z,14.77
2018-07-24T07:34:52.171Z,11.23
2018-07-24T07:37:22.192Z,13.17
2018-07-24T07:39:52.358Z,11.13
2018-07-24T07:42:23.324Z,10.67
2018-07-24T07:44:53.656Z,10.90
2018-07-24T07:47:24.120Z,17.87
2018-07-24T07:49:54.532Z,11.77
2018-07-24T07:52:25.135Z,11.43
2018-07-24T07:54:55.458Z,13.20
2018-07-24T07:57:25.714Z,11.27
2018-07-24T07:59:55.984Z,11.20
2018-07-24T08:02:26.204Z,10.97
2018-07-24T08:04:56.633Z,15.50
2018-07-24T08:07:27.430Z,10.87
2018-07-24T08:09:58.660Z,11.40
2018-07-24T08:12:29.720Z,10.77
2018-07-24T08:15:00.271Z,11.23
2018-07-24T08:17:30.550Z,10.13
2018-07-24T08:20:00.999Z,11.13
2018-07-24T08:22:31.312Z,10.40
2018-07-24T08:25:01.479Z,9.73
2018-07-24T08:27:31.864Z,13.43
2018-07-24T08:30:02.032Z,10.63
2018-07-24T08:32:32.210Z,12.40
2018-07-24T08:35:02.436Z,11.30
2018-07-24T08:37:32.539Z,11.60
2018-07-24T08:40:02.611Z,13.17
2018-07-24T08:42:32.695Z,11.43
2018-07-24T08:45:03.241Z,10.00
2018-07-24T08:47:33.226Z,12.03
2018-07-24T08:50:03.450Z,11.33
2018-07-24T08:52:33.691Z,11.73
2018-07-24T08:55:04.654Z,10.77
2018-07-24T08:57:34.941Z,10.13
2018-07-24T09:00:05.188Z,11.07
2018-07-24T09:02:36.268Z,11.30
2018-07-24T09:05:06.383Z,10.50
2018-07-24T09:07:36.814Z,11.83
2018-07-24T09:10:07.375Z,10.03
2018-07-24T09:12:38.127Z,10.73
2018-07-24T09:15:08.366Z,10.07
2018-07-24T09:17:38.615Z,10.83
2018-07-24T09:20:08.877Z,10.10
2018-07-24T09:22:39.016Z,9.83
2018-07-24T09:25:09.629Z,10.00
2018-07-24T09:27:39.909Z,10.97
2018-07-24T09:30:10.206Z,11.13
2018-07-24T09:32:40.376Z,10.37
2018-07-24T09:35:10.679Z,10.27
2018-07-24T09:37:40.760Z,9.67
2018-07-24T09:40:11.192Z,11.80
2018-07-24T09:42:41.510Z,13.93
2018-07-24T09:45:11.864Z,11.23
2018-07-24T09:47:42.098Z,9.47
2018-07-24T09:50:12.177Z,10.13
2018-07-24T09:52:43.051Z,8.70
2018-07-24T09:55:13.366Z,9.10
2018-07-24T09:57:43.507Z,8.97
2018-07-24T10:00:13.733Z,15.00
2018-07-24T10:02:43.953Z,9.83
2018-07-24T10:05:14.495Z,8.33
2018-07-24T10:07:45.059Z,8.60
2018-07-24T10:10:15.334Z,9.00
2018-07-24T10:12:45.821Z,9.40
2018-07-24T10:15:16.300Z,10.07
2018-07-24T10:17:47.616Z,10.40
2018-07-24T10:20:17.827Z,8.10
2018-07-24T10:22:48.010Z,8.17
2018-07-24T10:25:18.511Z,8.00
2018-07-24T10:27:48.768Z,12.27
2018-07-24T10:30:19.153Z,8.17
2018-07-24T10:32:49.771Z,8.97
2018-07-24T10:35:19.838Z,10.50
2018-07-24T10:37:50.044Z,8.47
2018-07-24T10:40:20.449Z,8.10
2018-07-24T10:42:50.538Z,7.93
2018-07-24T10:45:22.115Z,8.10
2018-07-24T10:47:52.299Z,8.37
2018-07-24T10:50:23.299Z,7.97
2018-07-24T10:52:53.738Z,8.23
2018-07-24T10:55:23.983Z,8.33
2018-07-24T10:57:54.683Z,7.37
2018-07-24T11:00:24.769Z,8.57
2018-07-24T11:02:55.264Z,7.53
2018-07-24T11:05:26.308Z,8.07
2018-07-24T11:07:57.007Z,7.40
2018-07-24T11:10:27.330Z,7.90
2018-07-24T11:12:57.467Z,8.33
2018-07-24T11:15:27.552Z,9.20
2018-07-24T11:17:57.637Z,8.23
2018-07-24T11:20:27.888Z,9.40
2018-07-24T11:22:57.876Z,8.73
2018-07-24T11:25:28.326Z,9.20
2018-07-24T11:27:58.508Z,12.20
2018-07-24T11:30:28.870Z,8.60
2018-07-24T11:32:59.014Z,8.67
2018-07-24T11:35:29.762Z,6.90
2018-07-24T11:38:00.360Z,7.20
2018-07-24T11:40:37.015Z,7.50
2018-07-24T11:43:07.309Z,7.33
2018-07-24T11:45:37.594Z,8.70
2018-07-24T11:48:07.914Z,7.00
2018-07-24T11:50:37.990Z,8.10
2018-07-24T11:53:08.331Z,8.57
2018-07-24T11:55:38.564Z,7.33
2018-07-24T11:58:09.425Z,6.67
2018-07-24T12:00:39.839Z,6.93
2018-07-24T12:03:10.276Z,6.33
2018-07-24T12:05:40.756Z,6.77
2018-07-24T12:08:11.780Z,10.20
2018-07-24T12:10:42.253Z,7.30
2018-07-24T12:13:12.429Z,7.23
2018-07-24T12:15:42.614Z,9.00
2018-07-24T12:18:13.087Z,7.40
2018-07-24T12:20:43.481Z,6.63
2018-07-24T12:23:13.721Z,7.20
2018-07-24T12:25:44.325Z,6.37
2018-07-24T12:28:14.618Z,10.03
2018-07-24T12:30:45.610Z,6.70
2018-07-24T12:33:16.527Z,5.80
2018-07-24T12:35:46.761Z,6.27
2018-07-24T12:38:16.969Z,6.30
2018-07-24T12:40:47.448Z,5.70
2018-07-24T12:43:17.787Z,5.90
2018-07-24T12:45:48.021Z,11.53
2018-07-24T12:48:20.487Z,7.27
2018-07-24T12:50:50.855Z,8.37
2018-07-24T12:53:20.911Z,6.03
2018-07-24T12:55:51.042Z,6.00
2018-07-24T12:58:21.165Z,5.60
2018-07-24T13:00:51.376Z,5.00
2018-07-24T13:03:21.660Z,6.90
2018-07-24T13:05:52.073Z,6.33
2018-07-24T13:08:22.484Z,6.47
2018-07-24T13:10:53.113Z,5.40
2018-07-24T13:13:24.488Z,5.50
2018-07-24T13:15:54.640Z,5.27
2018-07-24T13:18:25.240Z,5.90
2018-07-24T13:20:56.476Z,5.30
2018-07-24T13:23:26.727Z,5.80
2018-07-24T13:25:57.017Z,4.83
2018-07-24T13:28:27.198Z,5.40
2018-07-24T13:30:57.705Z,6.43
2018-07-24T13:33:28.150Z,4.60
2018-07-24T13:35:58.312Z,4.87
2018-07-24T13:38:28.566Z,4.80
2018-07-24T13:40:58.921Z,5.10
2018-07-24T13:43:29.229Z,4.60
2018-07-24T13:45:59.738Z,4.23
2018-07-24T13:48:30.151Z,7.13
2018-07-24T13:51:00.375Z,5.83
2018-07-24T13:53:30.489Z,4.93
2018-07-24T13:56:00.706Z,4.83
2018-07-24T13:58:30.926Z,4.73
2018-07-24T14:01:01.130Z,6.10
2018-07-24T14:03:31.281Z,5.10
2018-07-24T14:06:01.557Z,5.07
2018-07-24T14:08:31.774Z,4.50
2018-07-24T14:11:02.918Z,4.80
2018-07-24T14:13:33.069Z,5.83
2018-07-24T14:16:03.198Z,4.77
2018-07-24T14:18:33.422Z,4.43
2018-07-24T14:21:03.901Z,4.27
2018-07-24T14:23:34.109Z,4.20
2018-07-24T14:26:04.089Z,4.50
2018-07-24T14:28:34.331Z,3.73
2018-07-24T14:31:04.635Z,4.70
2018-07-24T14:33:34.819Z,4.23
2018-07-24T14:36:05.058Z,5.10
2018-07-24T14:38:36.072Z,4.57
2018-07-24T14:41:06.343Z,4.37
2018-07-24T14:43:36.597Z,4.00
2018-07-24T14:46:06.690Z,9.53
2018-07-24T14:48:37.145Z,4.10
2018-07-24T14:51:07.650Z,4.80
2018-07-24T14:53:37.864Z,5.60
2018-07-24T14:56:08.000Z,4.50
2018-07-24T14:58:38.243Z,7.80
2018-07-24T15:01:08.787Z,4.57
2018-07-24T15:03:38.940Z,3.93
2018-07-24T15:06:09.099Z,4.30
2018-07-24T15:08:39.462Z,4.77
2018-07-24T15:11:09.865Z,5.00
2018-07-24T15:13:40.681Z,4.40
2018-07-24T15:16:10.830Z,4.27
2018-07-24T15:18:41.042Z,4.37
2018-07-24T15:21:11.270Z,7.10
2018-07-24T15:23:41.487Z,4.10
2018-07-24T15:26:11.590Z,3.90
2018-07-24T15:28:41.816Z,3.47
2018-07-24T15:31:12.191Z,4.50
2018-07-24T15:33:42.348Z,5.53
2018-07-24T15:36:12.632Z,4.53
2018-07-24T15:38:43.046Z,5.93
2018-07-24T15:41:13.397Z,4.30
2018-07-24T15:43:43.769Z,4.30
2018-07-24T15:46:13.966Z,4.03
2018-07-24T15:48:44.623Z,4.17
2018-07-24T15:51:14.895Z,5.43
2018-07-24T15:53:45.052Z,5.83
2018-07-24T15:56:15.215Z,4.60
2018-07-24T15:58:45.794Z,3.87
2018-07-24T16:01:15.966Z,4.40
2018-07-24T16:03:46.045Z,5.30
2018-07-24T16:06:16.412Z,4.17
2018-07-24T16:08:47.121Z,5.10
2018-07-24T16:11:17.327Z,3.60
2018-07-24T16:13:47.883Z,4.83
2018-07-24T16:16:17.966Z,4.10
2018-07-24T16:18:48.200Z,4.53
2018-07-24T16:21:18.729Z,4.90
2018-07-24T16:23:49.328Z,4.93
2018-07-24T16:26:19.576Z,4.30
2018-07-24T16:28:50.362Z,6.90
2018-07-24T16:31:20.549Z,7.83
2018-07-24T16:33:50.869Z,5.53
2018-07-24T16:36:21.506Z,4.50
2018-07-24T16:38:51.862Z,4.47
2018-07-24T16:41:22.156Z,4.80
2018-07-24T16:43:52.939Z,4.83
2018-07-24T16:46:23.870Z,4.80
2018-07-24T16:48:54.144Z,4.70
2018-07-24T16:51:24.490Z,3.90
2018-07-24T16:53:54.666Z,4.67
2018-07-24T16:56:25.295Z,4.13
2018-07-24T16:58:55.635Z,6.60
2018-07-24T17:01:26.078Z,4.93
2018-07-24T17:03:56.410Z,4.40
2018-07-24T17:06:26.606Z,4.17
2018-07-24T17:08:56.684Z,4.00
2018-07-24T17:11:26.968Z,4.00
2018-07-24T17:13:57.474Z,6.53
2018-07-24T17:16:27.919Z,5.63
2018-07-24T17:18:58.091Z,4.23
2018-07-24T17:21:28.381Z,4.70
2018-07-24T17:23:58.551Z,4.50
2018-07-24T17:26:29.106Z,4.90
2018-07-24T17:28:59.373Z,4.50
2018-07-24T17:31:29.810Z,4.70
2018-07-24T17:33:59.975Z,4.27
2018-07-24T17:36:30.439Z,5.17
2018-07-24T17:39:02.453Z,6.63
2018-07-24T17:41:37.478Z,5.67
2018-07-24T17:44:08.534Z,6.70
2018-07-24T17:46:39.539Z,7.30
2018-07-24T17:49:09.847Z,7.17
2018-07-24T17:51:39.877Z,7.97
2018-07-24T17:54:10.198Z,6.60
2018-07-24T17:56:40.711Z,6.70
2018-07-24T17:59:11.314Z,7.17
2018-07-24T18:01:41.490Z,7.50
2018-07-24T18:04:11.838Z,7.77
2018-07-24T18:06:42.016Z,8.27
2018-07-24T18:09:13.590Z,7.10
2018-07-24T18:11:43.729Z,7.90
2018-07-24T18:14:14.932Z,7.93
2018-07-24T18:16:45.122Z,7.30
2018-07-24T18:19:15.371Z,8.37
2018-07-24T18:21:45.992Z,7.30
2018-07-24T18:24:16.099Z,7.77
2018-07-24T18:26:46.441Z,6.73
2018-07-24T18:29:16.824Z,8.80
2018-07-24T18:31:47.080Z,7.33
2018-07-24T18:34:17.347Z,7.20
2018-07-24T18:36:47.871Z,7.67
2018-07-24T18:39:18.112Z,7.23
2018-07-24T18:41:48.324Z,6.90
2018-07-24T18:44:18.647Z,6.90
2018-07-24T18:46:49.368Z,6.73
2018-07-24T18:49:19.732Z,7.20
2018-07-24T18:51:50.303Z,7.73
2018-07-24T18:54:24.057Z,7.17
2018-07-24T18:56:55.171Z,6.70
2018-07-24T18:59:25.980Z,7.53
2018-07-24T19:01:56.634Z,7.03
2018-07-24T19:04:27.136Z,8.13
2018-07-24T19:06:57.668Z,7.70
2018-07-24T19:09:27.866Z,6.33
2018-07-24T19:11:58.416Z,7.00
2018-07-24T19:14:28.541Z,7.83
2018-07-24T19:16:59.101Z,7.00
2018-07-24T19:19:29.188Z,7.23
2018-07-24T19:21:59.369Z,6.47
2018-07-24T19:24:29.899Z,7.40
2018-07-24T19:27:00.519Z,6.90
2018-07-24T19:29:30.757Z,7.10
2018-07-24T19:32:01.200Z,8.50
2018-07-24T19:34:31.793Z,8.40
2018-07-24T19:37:02.169Z,8.27
2018-07-24T19:39:32.851Z,7.40
2018-07-24T19:42:02.949Z,6.83
2018-07-24T19:44:33.176Z,7.03
2018-07-24T19:47:03.706Z,6.97
2018-07-24T19:49:34.248Z,9.80
2018-07-24T19:52:04.832Z,6.40
2018-07-24T19:54:35.432Z,10.63
2018-07-24T19:57:05.704Z,7.57
2018-07-24T19:59:36.102Z,7.60
2018-07-24T20:02:06.326Z,8.30
2018-07-24T20:04:37.116Z,8.60
2018-07-24T20:07:07.687Z,7.90
2018-07-24T20:09:38.151Z,7.67
2018-07-24T20:12:08.802Z,15.43
2018-07-24T20:14:39.272Z,10.30
2018-07-24T20:17:11.194Z,7.60
2018-07-24T20:19:41.567Z,8.43
2018-07-24T20:22:12.270Z,7.50
2018-07-24T20:24:43.170Z,8.83
2018-07-24T20:27:14.032Z,12.17
2018-07-24T20:29:44.577Z,7.63
2018-07-24T20:32:14.764Z,7.77
2018-07-24T20:34:51.072Z,8.60
2018-07-24T20:37:21.367Z,7.37
2018-07-24T20:39:51.526Z,9.10
2018-07-24T20:42:21.705Z,7.37
2018-07-24T20:44:52.031Z,8.17
2018-07-24T20:47:22.278Z,11.90
2018-07-24T20:49:52.376Z,8.10
2018-07-24T20:52:22.779Z,9.53
2018-07-24T20:54:53.450Z,8.10
2018-07-24T20:57:24.492Z,7.63
2018-07-24T20:59:56.687Z,7.77
2018-07-24T21:02:27.451Z,8.63
2018-07-24T21:04:58.354Z,8.63
2018-07-24T21:07:28.464Z,8.40
2018-07-24T21:09:58.589Z,11.40
2018-07-24T21:12:28.870Z,9.13
2018-07-24T21:14:59.678Z,8.73
2018-07-24T21:17:30.049Z,8.10
2018-07-24T21:20:00.285Z,8.20
2018-07-24T21:22:31.208Z,8.63
2018-07-24T21:25:01.675Z,8.67
2018-07-24T21:27:32.042Z,11.53
2018-07-24T21:30:02.718Z,7.60
2018-07-24T21:32:32.798Z,9.17
2018-07-24T21:35:03.038Z,9.37
2018-07-24T21:37:33.275Z,8.37
2018-07-24T21:40:03.424Z,8.43
2018-07-24T21:42:34.288Z,8.43
2018-07-24T21:45:05.041Z,8.50
2018-07-24T21:47:35.239Z,8.30
2018-07-24T21:50:05.363Z,12.20
2018-07-24T21:52:35.871Z,7.77
2018-07-24T21:55:06.058Z,8.50
2018-07-24T21:57:36.288Z,8.63
2018-07-24T22:00:08.563Z,8.43
2018-07-24T22:02:38.568Z,8.33
2018-07-24T22:05:09.418Z,12.83
2018-07-24T22:07:39.462Z,8.23
2018-07-24T22:10:14.820Z,10.60
2018-07-24T22:12:45.122Z,11.10
2018-07-24T22:15:22.335Z,13.00
2018-07-24T22:17:52.754Z,10.50
2018-07-24T22:20:23.299Z,9.40
2018-07-24T22:22:53.691Z,12.53
2018-07-24T22:25:25.553Z,9.20
2018-07-24T22:27:56.658Z,11.80
2018-07-24T22:30:27.207Z,10.50
2018-07-24T22:32:57.324Z,9.53
2018-07-24T22:35:27.758Z,10.07
2018-07-24T22:37:58.347Z,10.80
2018-07-24T22:40:28.678Z,10.90
2018-07-24T22:42:58.989Z,9.40
2018-07-24T22:45:28.932Z,9.67
2018-07-24T22:47:59.170Z,9.67
2018-07-24T22:50:30.233Z,9.83
2018-07-24T22:53:00.805Z,9.63
2018-07-24T22:55:30.971Z,10.67
2018-07-24T22:58:07.906Z,14.20
2018-07-24T23:00:38.053Z,13.60
2018-07-24T23:03:08.373Z,15.13
2018-07-24T23:05:38.699Z,9.80
2018-07-24T23:08:08.816Z,12.17
2018-07-24T23:10:39.524Z,9.63
2018-07-24T23:13:09.649Z,8.67
2018-07-24T23:15:39.811Z,10.00
2018-07-24T23:18:10.575Z,9.50
2018-07-24T23:20:41.028Z,9.13
2018-07-24T23:23:17.627Z,8.83
2018-07-24T23:25:47.563Z,10.93
2018-07-24T23:28:17.942Z,10.40
2018-07-24T23:30:48.143Z,8.87
2018-07-24T23:33:18.326Z,9.13
2018-07-24T23:35:48.556Z,9.00
2018-07-24T23:38:18.810Z,12.63
2018-07-24T23:40:48.897Z,8.70
2018-07-24T23:43:19.192Z,8.80
2018-07-24T23:45:49.850Z,9.33
2018-07-24T23:48:20.010Z,9.00
2018-07-24T23:50:50.191Z,9.47
2018-07-24T23:53:20.290Z,11.37
2018-07-24T23:55:50.393Z,10.00
2018-07-24T23:58:20.794Z,13.33
